Decoded Metar for EPWA (WARSAW in POLAND) (IATA:WAW) | Meteo·Mobile Aviation Weather
aviador You're here:

EPWA Decoded Metar

WARSAW in POLAND
Report Time2018-09-18 13:00:00
UTC Time2018-09-18 13:12:42
Flight Rules vfr VFR
Wind220° at 10 kt
W.Decomp.*RWY 15: 4.2 kt HW 9.1 kt RCW
RWY 29: 2.6 kt HW 9.7 kt LCW
W.Rank220° ranks 18
Current wind is above 220° avg. (6.3)
Visibility9999 m
Phenomena:N/A
Clouds:Few 043 Hf
Expected CloudBase > 5,200 ft AGL from Temp-Dew spread
CeilingNone
Temp26°C (ISA +12)
Dew Point13°C (45% RH)
AAT23.4°C
QNH1019 hPa
Density Alt1,703 ft
Elevation351 ft
Report Wrong Elevation
Raw Report
EPWA 181300Z 22010KT 9999 FEW043 26/13 Q1019 NOSIG=

Extra information for EPWA:More info

Metar Taf Metar & Taf Last 4 Metars F.Rules Stats Wind Profile Meteogram Temp Stats Airport Information Weather charts Add Link Nearby VenuesMetar ALERT Operation Metar Decoded Social comments